sensor_id;sensor_type;location;lat;lon;timestamp;temperature;humidity
53410;DHT22;66590;50.734;4.246;2023-03-29T00:01:50;9.10;99.90
53410;DHT22;66590;50.734;4.246;2023-03-29T00:04:17;9.10;99.90
53410;DHT22;66590;50.734;4.246;2023-03-29T00:06:44;8.90;99.90
53410;DHT22;66590;50.734;4.246;2023-03-29T00:09:12;9.00;99.90
53410;DHT22;66590;50.734;4.246;2023-03-29T00:11:39;9.10;99.90
53410;DHT22;66590;50.734;4.246;2023-03-29T00:14:06;9.00;99.90
53410;DHT22;66590;50.734;4.246;2023-03-29T00:16:33;8.90;99.90
53410;DHT22;66590;50.734;4.246;2023-03-29T00:19:01;9.00;99.90
53410;DHT22;66590;50.734;4.246;2023-03-29T00:21:29;8.90;99.90
53410;DHT22;66590;50.734;4.246;2023-03-29T00:23:56;8.90;99.90
53410;DHT22;66590;50.734;4.246;2023-03-29T00:26:23;8.90;99.90
53410;DHT22;66590;50.734;4.246;2023-03-29T00:28:50;9.00;99.90
53410;DHT22;66590;50.734;4.246;2023-03-29T00:31:17;8.90;99.90
53410;DHT22;66590;50.734;4.246;2023-03-29T00:33:44;8.80;99.90
53410;DHT22;66590;50.734;4.246;2023-03-29T00:36:13;8.90;99.90
53410;DHT22;66590;50.734;4.246;2023-03-29T00:38:40;9.00;99.90
53410;DHT22;66590;50.734;4.246;2023-03-29T00:41:08;9.10;99.90
53410;DHT22;66590;50.734;4.246;2023-03-29T00:43:57;9.10;99.90
53410;DHT22;66590;50.734;4.246;2023-03-29T00:46:26;9.00;99.90
53410;DHT22;66590;50.734;4.246;2023-03-29T00:48:55;9.10;99.90
53410;DHT22;66590;50.734;4.246;2023-03-29T00:51:27;9.20;99.90
53410;DHT22;66590;50.734;4.246;2023-03-29T00:53:58;9.10;99.90
53410;DHT22;66590;50.734;4.246;2023-03-29T00:56:28;9.00;99.90
53410;DHT22;66590;50.734;4.246;2023-03-29T00:58:59;9.00;99.90
53410;DHT22;66590;50.734;4.246;2023-03-29T01:01:30;9.00;99.90
53410;DHT22;66590;50.734;4.246;2023-03-29T01:04:01;9.10;99.90
53410;DHT22;66590;50.734;4.246;2023-03-29T01:06:33;9.20;99.90
53410;DHT22;66590;50.734;4.246;2023-03-29T01:09:04;9.20;99.90
53410;DHT22;66590;50.734;4.246;2023-03-29T01:11:34;9.10;99.90
53410;DHT22;66590;50.734;4.246;2023-03-29T01:14:04;9.00;99.90
53410;DHT22;66590;50.734;4.246;2023-03-29T01:16:34;9.00;99.90
53410;DHT22;66590;50.734;4.246;2023-03-29T01:19:03;9.00;99.90
53410;DHT22;66590;50.734;4.246;2023-03-29T01:21:34;8.90;99.90
53410;DHT22;66590;50.734;4.246;2023-03-29T01:24:13;8.90;99.90
53410;DHT22;66590;50.734;4.246;2023-03-29T01:26:52;8.90;99.90
53410;DHT22;66590;50.734;4.246;2023-03-29T01:29:23;9.10;99.90
53410;DHT22;66590;50.734;4.246;2023-03-29T01:31:55;9.20;99.90
53410;DHT22;66590;50.734;4.246;2023-03-29T01:34:26;9.10;99.90
53410;DHT22;66590;50.734;4.246;2023-03-29T01:36:59;9.00;99.90
53410;DHT22;66590;50.734;4.246;2023-03-29T01:39:29;9.00;99.90
53410;DHT22;66590;50.734;4.246;2023-03-29T01:42:06;9.10;99.90
53410;DHT22;66590;50.734;4.246;2023-03-29T01:44:44;9.10;99.90
53410;DHT22;66590;50.734;4.246;2023-03-29T01:47:19;9.10;99.90
53410;DHT22;66590;50.734;4.246;2023-03-29T01:49:52;9.10;99.90
53410;DHT22;66590;50.734;4.246;2023-03-29T01:52:27;9.10;99.90
53410;DHT22;66590;50.734;4.246;2023-03-29T01:54:59;9.20;99.90
53410;DHT22;66590;50.734;4.246;2023-03-29T01:57:29;9.20;99.90
53410;DHT22;66590;50.734;4.246;2023-03-29T02:00:00;9.10;99.90
53410;DHT22;66590;50.734;4.246;2023-03-29T02:02:29;9.00;99.90
53410;DHT22;66590;50.734;4.246;2023-03-29T02:04:58;9.10;99.90
53410;DHT22;66590;50.734;4.246;2023-03-29T02:07:27;9.00;99.90
53410;DHT22;66590;50.734;4.246;2023-03-29T02:09:57;9.10;99.90
53410;DHT22;66590;50.734;4.246;2023-03-29T02:12:24;9.10;99.90
53410;DHT22;66590;50.734;4.246;2023-03-29T02:14:51;9.10;99.90
53410;DHT22;66590;50.734;4.246;2023-03-29T02:17:21;9.10;99.90
53410;DHT22;66590;50.734;4.246;2023-03-29T02:19:53;9.20;99.90
53410;DHT22;66590;50.734;4.246;2023-03-29T02:22:25;9.20;99.90
53410;DHT22;66590;50.734;4.246;2023-03-29T02:24:55;9.20;99.90
53410;DHT22;66590;50.734;4.246;2023-03-29T02:27:23;9.10;99.90
53410;DHT22;66590;50.734;4.246;2023-03-29T02:29:50;9.10;99.90
53410;DHT22;66590;50.734;4.246;2023-03-29T02:32:23;9.10;99.90
53410;DHT22;66590;50.734;4.246;2023-03-29T02:34:56;9.10;99.90
53410;DHT22;66590;50.734;4.246;2023-03-29T02:37:24;9.10;99.90
53410;DHT22;66590;50.734;4.246;2023-03-29T02:39:53;9.20;99.90
53410;DHT22;66590;50.734;4.246;2023-03-29T02:42:21;9.10;99.90
53410;DHT22;66590;50.734;4.246;2023-03-29T02:44:50;9.10;99.90
53410;DHT22;66590;50.734;4.246;2023-03-29T02:47:23;9.30;99.90
53410;DHT22;66590;50.734;4.246;2023-03-29T02:49:51;9.40;99.90
53410;DHT22;66590;50.734;4.246;2023-03-29T02:52:23;9.30;99.90
53410;DHT22;66590;50.734;4.246;2023-03-29T02:54:52;9.30;99.90
53410;DHT22;66590;50.734;4.246;2023-03-29T02:57:21;9.30;99.90
53410;DHT22;66590;50.734;4.246;2023-03-29T02:59:48;9.30;99.90
53410;DHT22;66590;50.734;4.246;2023-03-29T03:02:15;9.30;99.90
53410;DHT22;66590;50.734;4.246;2023-03-29T03:04:44;9.40;99.90
53410;DHT22;66590;50.734;4.246;2023-03-29T03:07:11;9.50;99.90
53410;DHT22;66590;50.734;4.246;2023-03-29T03:09:37;9.50;99.90
53410;DHT22;66590;50.734;4.246;2023-03-29T03:12:05;9.50;99.90
53410;DHT22;66590;50.734;4.246;2023-03-29T03:14:32;9.50;99.90
53410;DHT22;66590;50.734;4.246;2023-03-29T03:16:59;9.50;99.90
53410;DHT22;66590;50.734;4.246;2023-03-29T03:19:30;9.40;99.90
53410;DHT22;66590;50.734;4.246;2023-03-29T03:21:58;9.40;99.90
53410;DHT22;66590;50.734;4.246;2023-03-29T03:24:25;9.20;99.90
53410;DHT22;66590;50.734;4.246;2023-03-29T03:26:52;9.10;99.90
53410;DHT22;66590;50.734;4.246;2023-03-29T03:29:19;9.20;99.90
53410;DHT22;66590;50.734;4.246;2023-03-29T03:31:46;9.20;99.90
53410;DHT22;66590;50.734;4.246;2023-03-29T03:34:13;9.10;99.90
53410;DHT22;66590;50.734;4.246;2023-03-29T03:36:40;9.20;99.90
53410;DHT22;66590;50.734;4.246;2023-03-29T03:39:08;9.10;99.90
53410;DHT22;66590;50.734;4.246;2023-03-29T03:41:36;9.00;99.90
53410;DHT22;66590;50.734;4.246;2023-03-29T03:44:03;9.00;99.90
53410;DHT22;66590;50.734;4.246;2023-03-29T03:46:30;9.00;99.90
53410;DHT22;66590;50.734;4.246;2023-03-29T03:48:57;8.80;99.90
53410;DHT22;66590;50.734;4.246;2023-03-29T03:51:24;8.70;99.90
53410;DHT22;66590;50.734;4.246;2023-03-29T03:53:51;8.80;99.90
53410;DHT22;66590;50.734;4.246;2023-03-29T03:56:20;8.70;99.90
53410;DHT22;66590;50.734;4.246;2023-03-29T03:58:46;8.70;99.90
53410;DHT22;66590;50.734;4.246;2023-03-29T04:01:13;8.80;99.90
53410;DHT22;66590;50.734;4.246;2023-03-29T04:03:40;8.90;99.90
53410;DHT22;66590;50.734;4.246;2023-03-29T04:06:08;8.70;99.90
53410;DHT22;66590;50.734;4.246;2023-03-29T04:08:35;8.70;99.90
53410;DHT22;66590;50.734;4.246;2023-03-29T04:11:02;8.60;99.90
53410;DHT22;66590;50.734;4.246;2023-03-29T04:13:31;8.70;99.90
53410;DHT22;66590;50.734;4.246;2023-03-29T04:15:58;8.70;99.90
53410;DHT22;66590;50.734;4.246;2023-03-29T04:18:27;8.70;99.90
53410;DHT22;66590;50.734;4.246;2023-03-29T04:20:54;8.50;99.90
53410;DHT22;66590;50.734;4.246;2023-03-29T04:23:21;8.60;99.90
53410;DHT22;66590;50.734;4.246;2023-03-29T04:25:48;8.60;99.90
53410;DHT22;66590;50.734;4.246;2023-03-29T04:28:15;8.70;99.90
53410;DHT22;66590;50.734;4.246;2023-03-29T04:30:44;8.70;99.90
53410;DHT22;66590;50.734;4.246;2023-03-29T04:33:11;8.80;99.90
53410;DHT22;66590;50.734;4.246;2023-03-29T04:35:38;9.00;99.90
53410;DHT22;66590;50.734;4.246;2023-03-29T04:38:05;9.00;99.90
53410;DHT22;66590;50.734;4.246;2023-03-29T04:40:32;9.00;99.90
53410;DHT22;66590;50.734;4.246;2023-03-29T04:42:59;9.00;99.90
53410;DHT22;66590;50.734;4.246;2023-03-29T04:45:26;8.90;99.90
53410;DHT22;66590;50.734;4.246;2023-03-29T04:47:56;8.90;99.90
53410;DHT22;66590;50.734;4.246;2023-03-29T04:50:23;8.80;99.90
53410;DHT22;66590;50.734;4.246;2023-03-29T04:52:50;8.80;99.90
53410;DHT22;66590;50.734;4.246;2023-03-29T04:55:18;8.90;99.90
53410;DHT22;66590;50.734;4.246;2023-03-29T04:57:45;8.90;99.90
53410;DHT22;66590;50.734;4.246;2023-03-29T05:00:12;9.10;99.90
53410;DHT22;66590;50.734;4.246;2023-03-29T05:02:40;9.30;99.90
53410;DHT22;66590;50.734;4.246;2023-03-29T05:05:09;9.30;99.90
53410;DHT22;66590;50.734;4.246;2023-03-29T05:07:36;9.10;99.90
53410;DHT22;66590;50.734;4.246;2023-03-29T05:10:04;9.10;99.90
53410;DHT22;66590;50.734;4.246;2023-03-29T05:12:32;9.00;99.90
53410;DHT22;66590;50.734;4.246;2023-03-29T05:14:59;9.00;99.90
53410;DHT22;66590;50.734;4.246;2023-03-29T05:17:26;9.00;99.90
53410;DHT22;66590;50.734;4.246;2023-03-29T05:19:53;9.20;99.90
53410;DHT22;66590;50.734;4.246;2023-03-29T05:22:21;9.30;99.90
53410;DHT22;66590;50.734;4.246;2023-03-29T05:24:49;9.30;99.90
53410;DHT22;66590;50.734;4.246;2023-03-29T05:27:16;9.40;99.90
53410;DHT22;66590;50.734;4.246;2023-03-29T05:29:43;9.40;99.90
53410;DHT22;66590;50.734;4.246;2023-03-29T05:32:10;9.40;99.90
53410;DHT22;66590;50.734;4.246;2023-03-29T05:34:37;9.50;99.90
53410;DHT22;66590;50.734;4.246;2023-03-29T05:37:04;9.50;99.90
53410;DHT22;66590;50.734;4.246;2023-03-29T05:39:32;9.40;99.90
53410;DHT22;66590;50.734;4.246;2023-03-29T05:42:03;9.40;99.90
53410;DHT22;66590;50.734;4.246;2023-03-29T05:44:30;9.50;99.90
53410;DHT22;66590;50.734;4.246;2023-03-29T05:46:57;9.60;99.90
53410;DHT22;66590;50.734;4.246;2023-03-29T05:49:24;9.40;99.90
53410;DHT22;66590;50.734;4.246;2023-03-29T05:51:51;9.40;99.90
53410;DHT22;66590;50.734;4.246;2023-03-29T05:54:18;9.50;99.90
53410;DHT22;66590;50.734;4.246;2023-03-29T05:56:47;9.60;99.90
53410;DHT22;66590;50.734;4.246;2023-03-29T05:59:14;9.60;99.90
53410;DHT22;66590;50.734;4.246;2023-03-29T06:01:41;9.50;99.90
53410;DHT22;66590;50.734;4.246;2023-03-29T06:04:07;9.30;99.90
53410;DHT22;66590;50.734;4.246;2023-03-29T06:06:35;9.30;99.90
53410;DHT22;66590;50.734;4.246;2023-03-29T06:09:02;9.30;99.90
53410;DHT22;66590;50.734;4.246;2023-03-29T06:11:29;9.50;99.90
53410;DHT22;66590;50.734;4.246;2023-03-29T06:13:58;9.60;99.90
53410;DHT22;66590;50.734;4.246;2023-03-29T06:16:25;9.80;99.90
53410;DHT22;66590;50.734;4.246;2023-03-29T06:18:52;9.80;99.90
53410;DHT22;66590;50.734;4.246;2023-03-29T06:21:19;9.80;99.90
53410;DHT22;66590;50.734;4.246;2023-03-29T06:23:46;9.80;99.90
53410;DHT22;66590;50.734;4.246;2023-03-29T06:26:13;10.00;99.90
53410;DHT22;66590;50.734;4.246;2023-03-29T06:28:40;10.00;99.90
53410;DHT22;66590;50.734;4.246;2023-03-29T06:31:08;9.80;99.90
53410;DHT22;66590;50.734;4.246;2023-03-29T06:33:36;9.80;99.90
53410;DHT22;66590;50.734;4.246;2023-03-29T06:36:03;9.70;99.90
53410;DHT22;66590;50.734;4.246;2023-03-29T06:38:30;9.70;99.90
53410;DHT22;66590;50.734;4.246;2023-03-29T06:41:01;9.80;99.90
53410;DHT22;66590;50.734;4.246;2023-03-29T06:43:28;9.80;99.90
53410;DHT22;66590;50.734;4.246;2023-03-29T06:45:55;9.80;99.90
53410;DHT22;66590;50.734;4.246;2023-03-29T06:48:24;9.90;99.90
53410;DHT22;66590;50.734;4.246;2023-03-29T06:50:51;10.20;99.90
53410;DHT22;66590;50.734;4.246;2023-03-29T06:53:18;10.50;99.90
53410;DHT22;66590;50.734;4.246;2023-03-29T06:55:45;10.70;99.90
53410;DHT22;66590;50.734;4.246;2023-03-29T06:58:12;10.60;99.90
53410;DHT22;66590;50.734;4.246;2023-03-29T07:00:39;10.60;99.90
53410;DHT22;66590;50.734;4.246;2023-03-29T07:03:07;10.50;99.90
53410;DHT22;66590;50.734;4.246;2023-03-29T07:05:36;10.60;99.90
53410;DHT22;66590;50.734;4.246;2023-03-29T07:08:03;10.70;99.90
53410;DHT22;66590;50.734;4.246;2023-03-29T07:10:36;10.70;99.90
53410;DHT22;66590;50.734;4.246;2023-03-29T07:13:04;10.60;99.90
53410;DHT22;66590;50.734;4.246;2023-03-29T07:15:31;10.70;99.90
53410;DHT22;66590;50.734;4.246;2023-03-29T07:17:58;10.70;99.90
53410;DHT22;66590;50.734;4.246;2023-03-29T07:20:25;10.70;99.90
53410;DHT22;66590;50.734;4.246;2023-03-29T07:22:54;10.90;99.90
53410;DHT22;66590;50.734;4.246;2023-03-29T07:25:22;10.90;99.90
53410;DHT22;66590;50.734;4.246;2023-03-29T07:27:50;10.90;99.90
53410;DHT22;66590;50.734;4.246;2023-03-29T07:30:19;11.10;99.90
53410;DHT22;66590;50.734;4.246;2023-03-29T07:32:48;11.20;99.90
53410;DHT22;66590;50.734;4.246;2023-03-29T07:35:16;11.20;99.90
53410;DHT22;66590;50.734;4.246;2023-03-29T07:37:44;11.20;99.90
53410;DHT22;66590;50.734;4.246;2023-03-29T07:40:14;11.30;99.90
53410;DHT22;66590;50.734;4.246;2023-03-29T07:42:42;11.20;99.90
53410;DHT22;66590;50.734;4.246;2023-03-29T07:45:10;11.20;99.90
53410;DHT22;66590;50.734;4.246;2023-03-29T07:47:37;11.30;99.90
53410;DHT22;66590;50.734;4.246;2023-03-29T07:50:06;11.20;99.90
53410;DHT22;66590;50.734;4.246;2023-03-29T07:52:34;11.20;99.90
53410;DHT22;66590;50.734;4.246;2023-03-29T07:55:01;11.20;99.90
53410;DHT22;66590;50.734;4.246;2023-03-29T07:57:30;11.00;99.90
53410;DHT22;66590;50.734;4.246;2023-03-29T07:59:57;10.90;99.90
53410;DHT22;66590;50.734;4.246;2023-03-29T08:02:24;11.10;99.90
53410;DHT22;66590;50.734;4.246;2023-03-29T08:04:52;11.20;99.90
53410;DHT22;66590;50.734;4.246;2023-03-29T08:07:19;11.20;99.90
53410;DHT22;66590;50.734;4.246;2023-03-29T08:09:47;11.50;99.90
53410;DHT22;66590;50.734;4.246;2023-03-29T08:12:13;11.50;99.90
53410;DHT22;66590;50.734;4.246;2023-03-29T08:14:42;11.60;99.90
53410;DHT22;66590;50.734;4.246;2023-03-29T08:17:09;11.70;99.90
53410;DHT22;66590;50.734;4.246;2023-03-29T08:19:36;11.80;99.90
53410;DHT22;66590;50.734;4.246;2023-03-29T08:22:03;11.70;99.90
53410;DHT22;66590;50.734;4.246;2023-03-29T08:24:30;11.90;99.90
53410;DHT22;66590;50.734;4.246;2023-03-29T08:26:57;12.00;99.90
53410;DHT22;66590;50.734;4.246;2023-03-29T08:29:25;12.10;99.90
53410;DHT22;66590;50.734;4.246;2023-03-29T08:31:53;12.10;99.90
53410;DHT22;66590;50.734;4.246;2023-03-29T08:34:20;12.20;99.90
53410;DHT22;66590;50.734;4.246;2023-03-29T08:36:47;12.10;99.90
53410;DHT22;66590;50.734;4.246;2023-03-29T08:39:14;12.10;99.90
53410;DHT22;66590;50.734;4.246;2023-03-29T08:41:51;12.20;99.90
53410;DHT22;66590;50.734;4.246;2023-03-29T08:44:41;12.30;99.90
53410;DHT22;66590;50.734;4.246;2023-03-29T08:47:18;12.40;99.90
53410;DHT22;66590;50.734;4.246;2023-03-29T08:49:50;12.50;99.90
53410;DHT22;66590;50.734;4.246;2023-03-29T08:52:23;12.60;99.90
53410;DHT22;66590;50.734;4.246;2023-03-29T08:54:54;12.70;99.90
53410;DHT22;66590;50.734;4.246;2023-03-29T08:57:26;12.80;99.90
53410;DHT22;66590;50.734;4.246;2023-03-29T08:59:56;12.80;99.90
53410;DHT22;66590;50.734;4.246;2023-03-29T09:02:29;13.00;99.90
53410;DHT22;66590;50.734;4.246;2023-03-29T09:04:59;13.10;99.90
53410;DHT22;66590;50.734;4.246;2023-03-29T09:07:28;13.20;99.90
53410;DHT22;66590;50.734;4.246;2023-03-29T09:09:55;13.30;99.90
53410;DHT22;66590;50.734;4.246;2023-03-29T09:12:29;13.30;99.90
53410;DHT22;66590;50.734;4.246;2023-03-29T09:15:10;13.30;99.90
53410;DHT22;66590;50.734;4.246;2023-03-29T09:17:49;13.20;99.90
53410;DHT22;66590;50.734;4.246;2023-03-29T09:20:29;13.10;99.90
53410;DHT22;66590;50.734;4.246;2023-03-29T09:23:26;13.30;99.90
53410;DHT22;66590;50.734;4.246;2023-03-29T09:25:59;13.30;99.90
53410;DHT22;66590;50.734;4.246;2023-03-29T09:28:35;13.20;99.90
53410;DHT22;66590;50.734;4.246;2023-03-29T09:31:05;13.10;99.90
53410;DHT22;66590;50.734;4.246;2023-03-29T09:33:40;13.30;99.90
53410;DHT22;66590;50.734;4.246;2023-03-29T09:36:10;13.50;99.90
53410;DHT22;66590;50.734;4.246;2023-03-29T09:38:42;13.60;99.90
53410;DHT22;66590;50.734;4.246;2023-03-29T09:41:18;13.90;99.90
53410;DHT22;66590;50.734;4.246;2023-03-29T09:43:47;14.20;99.90
53410;DHT22;66590;50.734;4.246;2023-03-29T09:46:18;14.30;99.90
53410;DHT22;66590;50.734;4.246;2023-03-29T09:48:49;14.10;99.90
53410;DHT22;66590;50.734;4.246;2023-03-29T09:51:18;14.00;99.90
53410;DHT22;66590;50.734;4.246;2023-03-29T09:53:48;14.00;99.90
53410;DHT22;66590;50.734;4.246;2023-03-29T09:56:16;13.80;99.90
53410;DHT22;66590;50.734;4.246;2023-03-29T09:58:43;13.90;99.90
53410;DHT22;66590;50.734;4.246;2023-03-29T10:01:14;14.00;99.90
53410;DHT22;66590;50.734;4.246;2023-03-29T10:03:48;14.30;99.90
53410;DHT22;66590;50.734;4.246;2023-03-29T10:06:16;14.20;99.90
53410;DHT22;66590;50.734;4.246;2023-03-29T10:08:50;14.60;99.90
53410;DHT22;66590;50.734;4.246;2023-03-29T10:11:21;15.20;99.90
53410;DHT22;66590;50.734;4.246;2023-03-29T10:13:51;15.50;99.90
53410;DHT22;66590;50.734;4.246;2023-03-29T10:16:20;15.70;99.90
53410;DHT22;66590;50.734;4.246;2023-03-29T10:18:49;15.80;99.90
53410;DHT22;66590;50.734;4.246;2023-03-29T10:21:18;15.90;99.90
53410;DHT22;66590;50.734;4.246;2023-03-29T10:23:45;16.10;99.90
53410;DHT22;66590;50.734;4.246;2023-03-29T10:26:20;15.90;99.90
53410;DHT22;66590;50.734;4.246;2023-03-29T10:28:50;15.70;99.90
53410;DHT22;66590;50.734;4.246;2023-03-29T10:31:20;15.50;99.90
53410;DHT22;66590;50.734;4.246;2023-03-29T10:33:52;15.30;99.90
53410;DHT22;66590;50.734;4.246;2023-03-29T10:36:21;15.50;99.90
53410;DHT22;66590;50.734;4.246;2023-03-29T10:38:49;15.20;99.90
53410;DHT22;66590;50.734;4.246;2023-03-29T10:41:19;15.10;99.90
53410;DHT22;66590;50.734;4.246;2023-03-29T10:43:48;15.30;99.90
53410;DHT22;66590;50.734;4.246;2023-03-29T10:46:20;15.60;99.90
53410;DHT22;66590;50.734;4.246;2023-03-29T10:48:48;15.90;99.90
53410;DHT22;66590;50.734;4.246;2023-03-29T10:51:18;15.70;99.90
53410;DHT22;66590;50.734;4.246;2023-03-29T10:53:46;15.70;99.90
53410;DHT22;66590;50.734;4.246;2023-03-29T10:56:24;15.50;99.90
53410;DHT22;66590;50.734;4.246;2023-03-29T10:59:15;15.70;99.90
53410;DHT22;66590;50.734;4.246;2023-03-29T11:01:54;16.00;99.90
53410;DHT22;66590;50.734;4.246;2023-03-29T11:04:30;16.20;99.90
53410;DHT22;66590;50.734;4.246;2023-03-29T11:07:21;16.40;99.90
53410;DHT22;66590;50.734;4.246;2023-03-29T11:09:58;16.40;99.90
53410;DHT22;66590;50.734;4.246;2023-03-29T11:12:29;16.50;99.90
53410;DHT22;66590;50.734;4.246;2023-03-29T11:15:09;16.40;99.90
53410;DHT22;66590;50.734;4.246;2023-03-29T11:17:51;16.40;99.90
53410;DHT22;66590;50.734;4.246;2023-03-29T11:20:26;16.20;99.90
53410;DHT22;66590;50.734;4.246;2023-03-29T11:22:58;16.10;99.90
53410;DHT22;66590;50.734;4.246;2023-03-29T11:25:39;16.30;99.90
53410;DHT22;66590;50.734;4.246;2023-03-29T11:28:14;16.40;99.90
53410;DHT22;66590;50.734;4.246;2023-03-29T11:30:47;16.30;99.90
53410;DHT22;66590;50.734;4.246;2023-03-29T11:33:33;16.30;99.90
53410;DHT22;66590;50.734;4.246;2023-03-29T11:36:08;15.90;99.90
53410;DHT22;66590;50.734;4.246;2023-03-29T11:38:44;15.50;99.90
53410;DHT22;66590;50.734;4.246;2023-03-29T11:41:15;15.60;99.90
53410;DHT22;66590;50.734;4.246;2023-03-29T11:43:46;15.50;99.90
53410;DHT22;66590;50.734;4.246;2023-03-29T11:46:17;15.60;99.90
53410;DHT22;66590;50.734;4.246;2023-03-29T11:48:51;15.80;99.90
53410;DHT22;66590;50.734;4.246;2023-03-29T11:51:22;15.80;99.90
53410;DHT22;66590;50.734;4.246;2023-03-29T11:53:58;15.90;99.90
53410;DHT22;66590;50.734;4.246;2023-03-29T11:56:30;15.90;99.90
53410;DHT22;66590;50.734;4.246;2023-03-29T11:59:02;15.80;99.90
53410;DHT22;66590;50.734;4.246;2023-03-29T12:01:34;16.00;99.90
53410;DHT22;66590;50.734;4.246;2023-03-29T12:04:04;16.10;99.90
53410;DHT22;66590;50.734;4.246;2023-03-29T12:06:36;16.00;99.90
53410;DHT22;66590;50.734;4.246;2023-03-29T12:09:11;15.90;99.90
53410;DHT22;66590;50.734;4.246;2023-03-29T12:11:47;16.00;99.90
53410;DHT22;66590;50.734;4.246;2023-03-29T12:14:18;16.40;99.90
53410;DHT22;66590;50.734;4.246;2023-03-29T12:16:50;16.20;99.90
53410;DHT22;66590;50.734;4.246;2023-03-29T12:19:21;16.20;99.90
53410;DHT22;66590;50.734;4.246;2023-03-29T12:21:50;16.30;99.90
53410;DHT22;66590;50.734;4.246;2023-03-29T12:24:20;16.40;99.90
53410;DHT22;66590;50.734;4.246;2023-03-29T12:27:04;16.70;99.90
53410;DHT22;66590;50.734;4.246;2023-03-29T12:29:47;16.90;99.90
53410;DHT22;66590;50.734;4.246;2023-03-29T12:32:31;16.80;99.90
53410;DHT22;66590;50.734;4.246;2023-03-29T12:35:13;16.70;99.90
53410;DHT22;66590;50.734;4.246;2023-03-29T12:37:46;16.80;99.90
53410;DHT22;66590;50.734;4.246;2023-03-29T12:40:19;16.80;99.90
53410;DHT22;66590;50.734;4.246;2023-03-29T12:42:50;17.00;99.90
53410;DHT22;66590;50.734;4.246;2023-03-29T12:45:19;17.30;99.90
53410;DHT22;66590;50.734;4.246;2023-03-29T12:47:48;17.30;99.90
53410;DHT22;66590;50.734;4.246;2023-03-29T12:50:27;17.20;99.90
53410;DHT22;66590;50.734;4.246;2023-03-29T12:53:04;17.30;99.90
53410;DHT22;66590;50.734;4.246;2023-03-29T12:55:47;17.50;99.90
53410;DHT22;66590;50.734;4.246;2023-03-29T12:58:36;17.10;99.90
53410;DHT22;66590;50.734;4.246;2023-03-29T13:01:06;17.30;99.90
53410;DHT22;66590;50.734;4.246;2023-03-29T13:03:47;17.20;99.90
53410;DHT22;66590;50.734;4.246;2023-03-29T13:06:28;17.00;99.90
53410;DHT22;66590;50.734;4.246;2023-03-29T13:09:00;17.20;99.90
53410;DHT22;66590;50.734;4.246;2023-03-29T13:11:32;17.20;99.90
53410;DHT22;66590;50.734;4.246;2023-03-29T13:14:01;16.90;99.90
53410;DHT22;66590;50.734;4.246;2023-03-29T13:16:31;17.10;99.90
53410;DHT22;66590;50.734;4.246;2023-03-29T13:19:08;17.10;99.90
53410;DHT22;66590;50.734;4.246;2023-03-29T13:21:45;17.20;99.90
53410;DHT22;66590;50.734;4.246;2023-03-29T13:24:28;17.50;99.90
53410;DHT22;66590;50.734;4.246;2023-03-29T13:27:06;17.90;99.90
53410;DHT22;66590;50.734;4.246;2023-03-29T13:29:43;18.20;99.90
53410;DHT22;66590;50.734;4.246;2023-03-29T13:32:34;18.30;99.90
53410;DHT22;66590;50.734;4.246;2023-03-29T13:35:13;18.20;99.90
53410;DHT22;66590;50.734;4.246;2023-03-29T13:37:50;18.30;99.90
53410;DHT22;66590;50.734;4.246;2023-03-29T13:40:31;18.50;99.90
53410;DHT22;66590;50.734;4.246;2023-03-29T13:43:07;18.40;99.90
53410;DHT22;66590;50.734;4.246;2023-03-29T13:45:35;18.20;99.90
53410;DHT22;66590;50.734;4.246;2023-03-29T13:48:04;18.30;99.90
53410;DHT22;66590;50.734;4.246;2023-03-29T13:50:51;18.20;99.90
53410;DHT22;66590;50.734;4.246;2023-03-29T13:53:23;18.30;99.90
53410;DHT22;66590;50.734;4.246;2023-03-29T13:55:54;18.20;99.90
53410;DHT22;66590;50.734;4.246;2023-03-29T13:58:31;17.90;99.90
53410;DHT22;66590;50.734;4.246;2023-03-29T14:01:09;17.70;99.90
53410;DHT22;66590;50.734;4.246;2023-03-29T14:03:41;17.60;99.90
53410;DHT22;66590;50.734;4.246;2023-03-29T14:06:12;17.40;99.90
53410;DHT22;66590;50.734;4.246;2023-03-29T14:08:41;17.60;99.90
53410;DHT22;66590;50.734;4.246;2023-03-29T14:11:18;17.80;99.90
53410;DHT22;66590;50.734;4.246;2023-03-29T14:13:47;17.90;99.90
53410;DHT22;66590;50.734;4.246;2023-03-29T14:16:14;17.80;99.90
53410;DHT22;66590;50.734;4.246;2023-03-29T14:18:42;17.80;99.90
53410;DHT22;66590;50.734;4.246;2023-03-29T14:21:11;17.90;99.90
53410;DHT22;66590;50.734;4.246;2023-03-29T14:23:43;17.90;99.90
53410;DHT22;66590;50.734;4.246;2023-03-29T14:26:15;17.90;99.90
53410;DHT22;66590;50.734;4.246;2023-03-29T14:28:47;17.80;99.90
53410;DHT22;66590;50.734;4.246;2023-03-29T14:31:18;17.70;99.90
53410;DHT22;66590;50.734;4.246;2023-03-29T14:33:50;17.80;99.90
53410;DHT22;66590;50.734;4.246;2023-03-29T14:36:18;17.70;99.90
53410;DHT22;66590;50.734;4.246;2023-03-29T14:38:48;17.60;99.90
53410;DHT22;66590;50.734;4.246;2023-03-29T14:41:16;17.50;99.90
53410;DHT22;66590;50.734;4.246;2023-03-29T14:43:43;17.40;99.90
53410;DHT22;66590;50.734;4.246;2023-03-29T14:46:14;17.40;99.90
53410;DHT22;66590;50.734;4.246;2023-03-29T14:48:44;17.60;99.90
53410;DHT22;66590;50.734;4.246;2023-03-29T14:51:11;17.50;99.90
53410;DHT22;66590;50.734;4.246;2023-03-29T14:53:39;17.70;99.90
53410;DHT22;66590;50.734;4.246;2023-03-29T14:56:10;17.40;99.90
53410;DHT22;66590;50.734;4.246;2023-03-29T14:58:43;17.20;99.90
53410;DHT22;66590;50.734;4.246;2023-03-29T15:01:16;17.20;99.90
53410;DHT22;66590;50.734;4.246;2023-03-29T15:03:48;17.30;99.90
53410;DHT22;66590;50.734;4.246;2023-03-29T15:06:16;17.40;99.90
53410;DHT22;66590;50.734;4.246;2023-03-29T15:08:43;17.40;99.90
53410;DHT22;66590;50.734;4.246;2023-03-29T15:11:30;17.40;99.90
53410;DHT22;66590;50.734;4.246;2023-03-29T15:14:01;17.50;99.90
53410;DHT22;66590;50.734;4.246;2023-03-29T15:16:30;17.40;99.90
53410;DHT22;66590;50.734;4.246;2023-03-29T15:19:00;17.50;99.90
53410;DHT22;66590;50.734;4.246;2023-03-29T15:21:31;17.50;99.90
53410;DHT22;66590;50.734;4.246;2023-03-29T15:24:00;17.50;99.90
53410;DHT22;66590;50.734;4.246;2023-03-29T15:26:29;17.70;99.90
53410;DHT22;66590;50.734;4.246;2023-03-29T15:29:01;18.00;99.90
53410;DHT22;66590;50.734;4.246;2023-03-29T15:31:34;17.90;99.90
53410;DHT22;66590;50.734;4.246;2023-03-29T15:34:03;17.90;99.90
53410;DHT22;66590;50.734;4.246;2023-03-29T15:36:38;17.90;99.90
53410;DHT22;66590;50.734;4.246;2023-03-29T15:39:08;18.00;99.90
53410;DHT22;66590;50.734;4.246;2023-03-29T15:41:35;18.10;99.90
53410;DHT22;66590;50.734;4.246;2023-03-29T15:44:02;18.10;99.90
53410;DHT22;66590;50.734;4.246;2023-03-29T15:46:29;18.10;99.90
53410;DHT22;66590;50.734;4.246;2023-03-29T15:48:58;18.00;99.90
53410;DHT22;66590;50.734;4.246;2023-03-29T15:51:25;17.90;99.90
53410;DHT22;66590;50.734;4.246;2023-03-29T15:53:52;17.90;99.90
53410;DHT22;66590;50.734;4.246;2023-03-29T15:56:20;17.90;99.90
53410;DHT22;66590;50.734;4.246;2023-03-29T15:58:48;17.80;99.90